sensor_id;sensor_type;location;lat;lon;timestamp;pressure;altitude;pressure_sealevel;temperature;humidity
17054;BME280;8643;48.824;11.422;2023-06-01T00:01:34;97084.38;;;13.34;68.63
17054;BME280;8643;48.824;11.422;2023-06-01T00:04:05;97079.75;;;13.51;67.25
17054;BME280;8643;48.824;11.422;2023-06-01T00:06:35;97077.91;;;13.67;67.59
17054;BME280;8643;48.824;11.422;2023-06-01T00:09:05;97086.66;;;13.45;68.69
17054;BME280;8643;48.824;11.422;2023-06-01T00:11:33;97082.19;;;13.40;69.72
17054;BME280;8643;48.824;11.422;2023-06-01T00:14:02;97085.25;;;13.51;67.28
17054;BME280;8643;48.824;11.422;2023-06-01T00:16:31;97083.09;;;13.44;69.51
17054;BME280;8643;48.824;11.422;2023-06-01T00:19:00;97081.28;;;13.36;69.66
17054;BME280;8643;48.824;11.422;2023-06-01T00:21:30;97083.78;;;13.29;69.49
17054;BME280;8643;48.824;11.422;2023-06-01T00:24:03;97086.19;;;13.30;69.39
17054;BME280;8643;48.824;11.422;2023-06-01T00:26:33;97086.91;;;13.40;67.63
17054;BME280;8643;48.824;11.422;2023-06-01T00:29:02;97083.88;;;13.57;67.66
17054;BME280;8643;48.824;11.422;2023-06-01T00:31:31;97084.47;;;13.50;67.22
17054;BME280;8643;48.824;11.422;2023-06-01T00:33:59;97083.66;;;13.50;66.83
17054;BME280;8643;48.824;11.422;2023-06-01T00:36:28;97083.22;;;13.48;66.70
17054;BME280;8643;48.824;11.422;2023-06-01T00:38:59;97084.91;;;13.52;66.21
17054;BME280;8643;48.824;11.422;2023-06-01T00:41:32;97077.13;;;13.54;66.42
17054;BME280;8643;48.824;11.422;2023-06-01T00:44:01;97083.91;;;13.45;67.58
17054;BME280;8643;48.824;11.422;2023-06-01T00:46:31;97072.56;;;13.46;67.22
17054;BME280;8643;48.824;11.422;2023-06-01T00:49:00;97080.81;;;13.46;68.08
17054;BME280;8643;48.824;11.422;2023-06-01T00:51:28;97078.28;;;13.41;67.01
17054;BME280;8643;48.824;11.422;2023-06-01T00:54:00;97070.63;;;13.34;68.89
17054;BME280;8643;48.824;11.422;2023-06-01T00:56:28;97065.47;;;13.33;67.25
17054;BME280;8643;48.824;11.422;2023-06-01T00:59:00;97065.38;;;13.17;68.01
17054;BME280;8643;48.824;11.422;2023-06-01T01:01:28;97065.56;;;13.12;69.61
17054;BME280;8643;48.824;11.422;2023-06-01T01:03:59;97069.72;;;13.06;69.33
17054;BME280;8643;48.824;11.422;2023-06-01T01:06:42;97069.25;;;13.16;67.90
17054;BME280;8643;48.824;11.422;2023-06-01T01:09:22;97071.75;;;13.21;66.98
17054;BME280;8643;48.824;11.422;2023-06-01T01:11:57;97070.53;;;13.18;67.65
17054;BME280;8643;48.824;11.422;2023-06-01T01:14:36;97065.13;;;13.22;67.21
17054;BME280;8643;48.824;11.422;2023-06-01T01:17:13;97070.97;;;13.20;67.81
17054;BME280;8643;48.824;11.422;2023-06-01T01:19:59;97062.13;;;13.15;67.74
17054;BME280;8643;48.824;11.422;2023-06-01T01:22:55;97060.31;;;13.07;68.79
17054;BME280;8643;48.824;11.422;2023-06-01T01:26:12;97064.56;;;13.04;68.44
17054;BME280;8643;48.824;11.422;2023-06-01T01:28:49;97065.25;;;13.01;69.11
17054;BME280;8643;48.824;11.422;2023-06-01T01:31:23;97061.72;;;13.00;70.61
17054;BME280;8643;48.824;11.422;2023-06-01T01:33:55;97058.84;;;13.09;67.89
17054;BME280;8643;48.824;11.422;2023-06-01T01:36:24;97064.22;;;13.06;68.41
17054;BME280;8643;48.824;11.422;2023-06-01T01:38:54;97057.13;;;13.05;68.26
17054;BME280;8643;48.824;11.422;2023-06-01T01:41:23;97054.94;;;13.10;68.66
17054;BME280;8643;48.824;11.422;2023-06-01T01:43:54;97052.31;;;13.01;68.75
17054;BME280;8643;48.824;11.422;2023-06-01T01:46:28;97049.44;;;12.98;70.05
17054;BME280;8643;48.824;11.422;2023-06-01T01:49:09;97046.34;;;12.87;71.03
17054;BME280;8643;48.824;11.422;2023-06-01T01:51:47;97043.84;;;12.70;71.53
17054;BME280;8643;48.824;11.422;2023-06-01T01:54:19;97040.41;;;12.60;73.17
17054;BME280;8643;48.824;11.422;2023-06-01T01:56:50;97046.94;;;12.56;71.78
17054;BME280;8643;48.824;11.422;2023-06-01T01:59:23;97040.53;;;12.52;72.07
17054;BME280;8643;48.824;11.422;2023-06-01T02:01:53;97041.44;;;12.56;71.41
17054;BME280;8643;48.824;11.422;2023-06-01T02:04:22;97035.59;;;12.57;70.99
17054;BME280;8643;48.824;11.422;2023-06-01T02:06:51;97027.00;;;12.59;70.55
17054;BME280;8643;48.824;11.422;2023-06-01T02:09:20;97029.31;;;12.57;70.97
17054;BME280;8643;48.824;11.422;2023-06-01T02:11:49;97034.34;;;12.67;69.91
17054;BME280;8643;48.824;11.422;2023-06-01T02:14:18;97026.34;;;12.62;69.56
17054;BME280;8643;48.824;11.422;2023-06-01T02:16:48;97028.84;;;12.67;69.46
17054;BME280;8643;48.824;11.422;2023-06-01T02:19:17;97027.13;;;12.75;68.51
17054;BME280;8643;48.824;11.422;2023-06-01T02:21:46;97030.91;;;12.70;71.05
17054;BME280;8643;48.824;11.422;2023-06-01T02:24:14;97022.09;;;12.52;70.91
17054;BME280;8643;48.824;11.422;2023-06-01T02:26:43;97024.50;;;12.54;70.45
17054;BME280;8643;48.824;11.422;2023-06-01T02:29:15;97026.66;;;12.48;71.46
17054;BME280;8643;48.824;11.422;2023-06-01T02:31:44;97025.72;;;12.32;72.25
17054;BME280;8643;48.824;11.422;2023-06-01T02:34:15;97029.47;;;12.27;71.26
17054;BME280;8643;48.824;11.422;2023-06-01T02:36:45;97031.91;;;12.41;70.58
17054;BME280;8643;48.824;11.422;2023-06-01T02:39:16;97024.50;;;12.54;69.60
17054;BME280;8643;48.824;11.422;2023-06-01T02:41:45;97022.78;;;12.49;70.10
17054;BME280;8643;48.824;11.422;2023-06-01T02:44:14;97022.97;;;12.32;73.61
17054;BME280;8643;48.824;11.422;2023-06-01T02:46:43;97023.72;;;12.07;72.50
17054;BME280;8643;48.824;11.422;2023-06-01T02:49:11;97015.03;;;12.05;72.93
17054;BME280;8643;48.824;11.422;2023-06-01T02:51:43;97012.97;;;12.02;72.84
17054;BME280;8643;48.824;11.422;2023-06-01T02:54:18;97009.31;;;11.98;74.36
17054;BME280;8643;48.824;11.422;2023-06-01T02:56:47;97010.19;;;11.90;73.49
17054;BME280;8643;48.824;11.422;2023-06-01T02:59:51;97011.72;;;12.00;72.94
17054;BME280;8643;48.824;11.422;2023-06-01T03:02:20;97013.34;;;12.13;71.99
17054;BME280;8643;48.824;11.422;2023-06-01T03:04:49;97012.66;;;12.16;71.29
17054;BME280;8643;48.824;11.422;2023-06-01T03:07:19;97012.44;;;12.21;70.71
17054;BME280;8643;48.824;11.422;2023-06-01T03:09:51;97005.59;;;12.27;71.64
17054;BME280;8643;48.824;11.422;2023-06-01T03:12:25;97014.13;;;12.14;72.78
17054;BME280;8643;48.824;11.422;2023-06-01T03:14:54;97014.69;;;11.95;73.91
17054;BME280;8643;48.824;11.422;2023-06-01T03:17:23;97011.88;;;11.82;75.87
17054;BME280;8643;48.824;11.422;2023-06-01T03:19:52;97012.28;;;11.72;76.85
17054;BME280;8643;48.824;11.422;2023-06-01T03:22:24;97011.22;;;11.64;76.02
17054;BME280;8643;48.824;11.422;2023-06-01T03:24:52;97011.56;;;11.63;76.43
17054;BME280;8643;48.824;11.422;2023-06-01T03:27:27;97016.72;;;11.64;75.72
17054;BME280;8643;48.824;11.422;2023-06-01T03:29:55;97021.06;;;11.65;76.23
17054;BME280;8643;48.824;11.422;2023-06-01T03:32:24;97018.31;;;11.65;76.87
17054;BME280;8643;48.824;11.422;2023-06-01T03:34:55;97027.34;;;11.66;77.83
17054;BME280;8643;48.824;11.422;2023-06-01T03:37:26;97025.84;;;11.68;75.58
17054;BME280;8643;48.824;11.422;2023-06-01T03:39:55;97026.78;;;11.94;71.95
17054;BME280;8643;48.824;11.422;2023-06-01T03:42:28;97022.16;;;12.19;71.35
17054;BME280;8643;48.824;11.422;2023-06-01T03:44:57;97032.72;;;12.41;70.37
17054;BME280;8643;48.824;11.422;2023-06-01T03:47:25;97030.91;;;12.45;69.74
17054;BME280;8643;48.824;11.422;2023-06-01T03:49:54;97039.16;;;12.45;71.16
17054;BME280;8643;48.824;11.422;2023-06-01T03:52:27;97028.72;;;12.51;69.84
17054;BME280;8643;48.824;11.422;2023-06-01T03:54:57;97026.09;;;12.55;70.03
17054;BME280;8643;48.824;11.422;2023-06-01T03:57:47;97025.53;;;12.74;68.22
17054;BME280;8643;48.824;11.422;2023-06-01T04:00:16;97027.13;;;12.87;68.22
17054;BME280;8643;48.824;11.422;2023-06-01T04:02:53;97025.75;;;12.93;68.39
17054;BME280;8643;48.824;11.422;2023-06-01T04:05:24;97027.00;;;12.96;68.78
17054;BME280;8643;48.824;11.422;2023-06-01T04:07:55;97033.53;;;12.91;71.26
17054;BME280;8643;48.824;11.422;2023-06-01T04:10:25;97030.34;;;12.89;69.98
17054;BME280;8643;48.824;11.422;2023-06-01T04:12:54;97031.81;;;12.99;69.36
17054;BME280;8643;48.824;11.422;2023-06-01T04:15:26;97027.22;;;13.03;68.25
17054;BME280;8643;48.824;11.422;2023-06-01T04:17:56;97031.09;;;13.14;67.45
17054;BME280;8643;48.824;11.422;2023-06-01T04:20:25;97035.53;;;13.31;66.38
17054;BME280;8643;48.824;11.422;2023-06-01T04:22:55;97037.50;;;13.43;66.60
17054;BME280;8643;48.824;11.422;2023-06-01T04:25:24;97038.97;;;13.41;69.35
17054;BME280;8643;48.824;11.422;2023-06-01T04:27:54;97039.75;;;13.53;66.49
17054;BME280;8643;48.824;11.422;2023-06-01T04:30:28;97041.03;;;13.56;67.15
17054;BME280;8643;48.824;11.422;2023-06-01T04:32:57;97049.22;;;13.68;67.18
17054;BME280;8643;48.824;11.422;2023-06-01T04:35:28;97043.03;;;13.71;66.93
17054;BME280;8643;48.824;11.422;2023-06-01T04:38:00;97048.94;;;13.86;68.76
17054;BME280;8643;48.824;11.422;2023-06-01T04:40:32;97048.84;;;13.82;70.83
17054;BME280;8643;48.824;11.422;2023-06-01T04:43:01;97054.09;;;13.87;69.50
17054;BME280;8643;48.824;11.422;2023-06-01T04:45:31;97049.22;;;13.97;70.89
17054;BME280;8643;48.824;11.422;2023-06-01T04:48:03;97044.34;;;14.06;66.53
17054;BME280;8643;48.824;11.422;2023-06-01T04:50:41;97048.47;;;14.12;71.34
17054;BME280;8643;48.824;11.422;2023-06-01T04:53:13;97039.22;;;14.20;70.83
17054;BME280;8643;48.824;11.422;2023-06-01T04:55:41;97043.75;;;14.12;70.05
17054;BME280;8643;48.824;11.422;2023-06-01T04:58:12;97052.81;;;14.13;75.40
17054;BME280;8643;48.824;11.422;2023-06-01T05:00:40;97044.38;;;14.22;72.96
17054;BME280;8643;48.824;11.422;2023-06-01T05:03:09;97052.94;;;14.33;71.10
17054;BME280;8643;48.824;11.422;2023-06-01T05:05:38;97051.72;;;14.46;66.81
17054;BME280;8643;48.824;11.422;2023-06-01T05:08:08;97049.44;;;14.64;65.45
17054;BME280;8643;48.824;11.422;2023-06-01T05:10:39;97055.19;;;14.75;66.61
17054;BME280;8643;48.824;11.422;2023-06-01T05:13:08;97053.41;;;14.82;67.60
17054;BME280;8643;48.824;11.422;2023-06-01T05:15:38;97041.88;;;14.93;67.63
17054;BME280;8643;48.824;11.422;2023-06-01T05:18:06;97045.56;;;15.00;67.64
17054;BME280;8643;48.824;11.422;2023-06-01T05:20:35;97044.22;;;15.10;68.49
17054;BME280;8643;48.824;11.422;2023-06-01T05:23:04;97044.41;;;15.17;66.98
17054;BME280;8643;48.824;11.422;2023-06-01T05:25:33;97047.19;;;15.37;69.01
17054;BME280;8643;48.824;11.422;2023-06-01T05:28:03;97043.66;;;15.56;66.85
17054;BME280;8643;48.824;11.422;2023-06-01T05:30:33;97036.28;;;15.80;66.45
17054;BME280;8643;48.824;11.422;2023-06-01T05:33:03;97041.28;;;15.93;66.30
17054;BME280;8643;48.824;11.422;2023-06-01T05:35:32;97042.28;;;16.05;65.92
17054;BME280;8643;48.824;11.422;2023-06-01T05:38:02;97046.19;;;16.23;64.84
17054;BME280;8643;48.824;11.422;2023-06-01T05:40:31;97042.16;;;16.40;65.33
17054;BME280;8643;48.824;11.422;2023-06-01T05:43:00;97036.94;;;16.58;64.04
17054;BME280;8643;48.824;11.422;2023-06-01T05:45:30;97039.31;;;16.83;64.46
17054;BME280;8643;48.824;11.422;2023-06-01T05:47:59;97043.22;;;17.01;62.82
17054;BME280;8643;48.824;11.422;2023-06-01T05:50:30;97044.22;;;17.16;61.88
17054;BME280;8643;48.824;11.422;2023-06-01T05:52:59;97039.81;;;17.42;61.03
17054;BME280;8643;48.824;11.422;2023-06-01T05:55:28;97044.84;;;17.63;61.83
17054;BME280;8643;48.824;11.422;2023-06-01T05:57:57;97043.53;;;17.84;59.64
17054;BME280;8643;48.824;11.422;2023-06-01T06:00:26;97044.72;;;18.17;58.75
17054;BME280;8643;48.824;11.422;2023-06-01T06:02:56;97041.97;;;18.58;59.33
17054;BME280;8643;48.824;11.422;2023-06-01T06:05:25;97037.56;;;18.94;60.26
17054;BME280;8643;48.824;11.422;2023-06-01T06:07:53;97034.53;;;19.17;57.88
17054;BME280;8643;48.824;11.422;2023-06-01T06:10:22;97043.75;;;19.32;56.50
17054;BME280;8643;48.824;11.422;2023-06-01T06:12:50;97037.91;;;19.48;58.26
17054;BME280;8643;48.824;11.422;2023-06-01T06:15:19;97038.56;;;19.97;59.89
17054;BME280;8643;48.824;11.422;2023-06-01T06:17:48;97042.97;;;20.09;56.31
17054;BME280;8643;48.824;11.422;2023-06-01T06:20:18;97045.84;;;20.63;56.41
17054;BME280;8643;48.824;11.422;2023-06-01T06:22:50;97044.72;;;20.85;55.67
17054;BME280;8643;48.824;11.422;2023-06-01T06:25:19;97044.72;;;21.14;51.98
17054;BME280;8643;48.824;11.422;2023-06-01T06:27:48;97044.63;;;21.65;57.32
17054;BME280;8643;48.824;11.422;2023-06-01T06:30:17;97040.22;;;21.74;54.73
17054;BME280;8643;48.824;11.422;2023-06-01T06:32:45;97040.28;;;21.46;52.02
17054;BME280;8643;48.824;11.422;2023-06-01T06:35:14;97041.47;;;21.63;56.98
17054;BME280;8643;48.824;11.422;2023-06-01T06:37:44;97045.78;;;21.78;51.08
17054;BME280;8643;48.824;11.422;2023-06-01T06:40:13;97048.09;;;21.97;53.42
17054;BME280;8643;48.824;11.422;2023-06-01T06:42:42;97053.16;;;22.31;53.16
17054;BME280;8643;48.824;11.422;2023-06-01T06:45:10;97049.94;;;22.33;54.21
17054;BME280;8643;48.824;11.422;2023-06-01T06:47:39;97057.88;;;22.38;51.64
17054;BME280;8643;48.824;11.422;2023-06-01T06:50:10;97057.00;;;22.56;54.38
17054;BME280;8643;48.824;11.422;2023-06-01T06:52:39;97058.34;;;22.89;49.79
17054;BME280;8643;48.824;11.422;2023-06-01T06:55:09;97056.59;;;23.13;47.72
17054;BME280;8643;48.824;11.422;2023-06-01T06:57:38;97054.22;;;23.08;52.21
17054;BME280;8643;48.824;11.422;2023-06-01T07:00:09;97058.78;;;23.33;48.65
17054;BME280;8643;48.824;11.422;2023-06-01T07:02:42;97057.19;;;23.32;49.55
17054;BME280;8643;48.824;11.422;2023-06-01T07:05:12;97045.03;;;23.11;48.97
17054;BME280;8643;48.824;11.422;2023-06-01T07:07:43;97056.75;;;22.92;48.32
17054;BME280;8643;48.824;11.422;2023-06-01T07:10:14;97053.75;;;23.58;50.54
17054;BME280;8643;48.824;11.422;2023-06-01T07:12:42;97047.81;;;24.22;51.66
17054;BME280;8643;48.824;11.422;2023-06-01T07:15:11;97052.50;;;24.32;43.51
17054;BME280;8643;48.824;11.422;2023-06-01T07:17:39;97054.47;;;24.62;49.17
17054;BME280;8643;48.824;11.422;2023-06-01T07:20:09;97052.72;;;24.45;47.83
17054;BME280;8643;48.824;11.422;2023-06-01T07:22:38;97047.97;;;24.42;47.81
17054;BME280;8643;48.824;11.422;2023-06-01T07:25:08;97038.88;;;24.88;46.75
17054;BME280;8643;48.824;11.422;2023-06-01T07:27:38;97043.19;;;24.97;50.83
17054;BME280;8643;48.824;11.422;2023-06-01T07:30:11;97044.38;;;25.19;43.37
17054;BME280;8643;48.824;11.422;2023-06-01T07:32:41;97041.25;;;25.61;50.43
17054;BME280;8643;48.824;11.422;2023-06-01T07:35:10;97047.41;;;25.96;45.11
17054;BME280;8643;48.824;11.422;2023-06-01T07:37:40;97043.19;;;26.44;42.54
17054;BME280;8643;48.824;11.422;2023-06-01T07:40:09;97040.38;;;26.44;42.28
17054;BME280;8643;48.824;11.422;2023-06-01T07:42:41;97045.88;;;26.31;38.13
17054;BME280;8643;48.824;11.422;2023-06-01T07:45:10;97043.53;;;26.46;40.17
17054;BME280;8643;48.824;11.422;2023-06-01T07:47:40;97048.31;;;26.29;39.31
17054;BME280;8643;48.824;11.422;2023-06-01T07:50:09;97052.38;;;26.65;43.39
17054;BME280;8643;48.824;11.422;2023-06-01T07:52:37;97050.56;;;26.55;40.54
17054;BME280;8643;48.824;11.422;2023-06-01T07:55:07;97050.28;;;26.69;40.39
17054;BME280;8643;48.824;11.422;2023-06-01T07:57:36;97049.59;;;27.14;45.20
17054;BME280;8643;48.824;11.422;2023-06-01T08:00:08;97040.63;;;26.70;40.02
17054;BME280;8643;48.824;11.422;2023-06-01T08:02:39;97040.84;;;26.59;41.08
17054;BME280;8643;48.824;11.422;2023-06-01T08:05:10;97037.91;;;26.46;40.17
17054;BME280;8643;48.824;11.422;2023-06-01T08:07:38;97041.06;;;26.85;44.62
17054;BME280;8643;48.824;11.422;2023-06-01T08:10:08;97043.72;;;27.41;40.09
17054;BME280;8643;48.824;11.422;2023-06-01T08:12:36;97039.06;;;27.35;39.82
17054;BME280;8643;48.824;11.422;2023-06-01T08:15:07;97034.50;;;27.70;37.46
17054;BME280;8643;48.824;11.422;2023-06-01T08:17:38;97034.88;;;27.85;37.11
17054;BME280;8643;48.824;11.422;2023-06-01T08:20:08;97032.47;;;26.92;37.53
17054;BME280;8643;48.824;11.422;2023-06-01T08:22:40;97029.06;;;27.01;39.98
17054;BME280;8643;48.824;11.422;2023-06-01T08:25:09;97032.16;;;27.52;42.16
17054;BME280;8643;48.824;11.422;2023-06-01T08:27:38;97035.09;;;28.07;35.56
17054;BME280;8643;48.824;11.422;2023-06-01T08:30:10;97040.25;;;27.50;35.65
17054;BME280;8643;48.824;11.422;2023-06-01T08:32:39;97029.75;;;27.96;34.28
17054;BME280;8643;48.824;11.422;2023-06-01T08:35:08;97028.41;;;28.56;34.84
17054;BME280;8643;48.824;11.422;2023-06-01T08:37:37;97024.59;;;28.88;38.30
17054;BME280;8643;48.824;11.422;2023-06-01T08:40:07;97029.00;;;28.89;34.38
17054;BME280;8643;48.824;11.422;2023-06-01T08:42:46;97025.59;;;28.95;37.81
17054;BME280;8643;48.824;11.422;2023-06-01T08:45:19;97028.16;;;29.15;36.42
17054;BME280;8643;48.824;11.422;2023-06-01T08:47:52;97033.03;;;28.88;33.06
17054;BME280;8643;48.824;11.422;2023-06-01T08:50:22;97032.16;;;28.11;38.27
17054;BME280;8643;48.824;11.422;2023-06-01T08:52:53;97035.34;;;27.84;35.97
17054;BME280;8643;48.824;11.422;2023-06-01T08:55:25;97026.22;;;28.22;37.56
17054;BME280;8643;48.824;11.422;2023-06-01T08:57:54;97027.84;;;29.00;37.03
17054;BME280;8643;48.824;11.422;2023-06-01T09:00:24;97025.91;;;29.57;38.50
17054;BME280;8643;48.824;11.422;2023-06-01T09:02:53;97024.00;;;28.94;34.05
17054;BME280;8643;48.824;11.422;2023-06-01T09:05:22;97024.00;;;29.54;34.87
17054;BME280;8643;48.824;11.422;2023-06-01T09:07:51;97024.63;;;29.93;34.28
17054;BME280;8643;48.824;11.422;2023-06-01T09:10:23;97022.75;;;29.20;33.47
17054;BME280;8643;48.824;11.422;2023-06-01T09:12:56;97021.84;;;29.58;42.08
17054;BME280;8643;48.824;11.422;2023-06-01T09:15:26;97024.09;;;28.39;35.69
17054;BME280;8643;48.824;11.422;2023-06-01T09:18:06;97017.38;;;28.49;34.19
17054;BME280;8643;48.824;11.422;2023-06-01T09:20:35;97014.19;;;28.47;35.46
17054;BME280;8643;48.824;11.422;2023-06-01T09:23:04;97006.66;;;28.82;33.97
17054;BME280;8643;48.824;11.422;2023-06-01T09:25:33;97017.31;;;29.13;36.11
17054;BME280;8643;48.824;11.422;2023-06-01T09:28:02;97013.78;;;29.70;36.71
17054;BME280;8643;48.824;11.422;2023-06-01T09:30:41;97015.56;;;29.76;35.19
17054;BME280;8643;48.824;11.422;2023-06-01T09:33:11;97012.19;;;30.35;36.79
17054;BME280;8643;48.824;11.422;2023-06-01T09:35:44;97020.59;;;29.94;33.74
17054;BME280;8643;48.824;11.422;2023-06-01T09:38:22;97014.25;;;29.68;34.67
17054;BME280;8643;48.824;11.422;2023-06-01T09:41:01;97014.75;;;30.83;32.02
17054;BME280;8643;48.824;11.422;2023-06-01T09:43:34;97013.88;;;30.55;31.37
17054;BME280;8643;48.824;11.422;2023-06-01T09:46:08;97017.28;;;30.40;34.72
17054;BME280;8643;48.824;11.422;2023-06-01T09:48:36;97002.13;;;30.34;34.72
17054;BME280;8643;48.824;11.422;2023-06-01T09:51:20;97012.84;;;29.86;31.90
17054;BME280;8643;48.824;11.422;2023-06-01T09:53:50;97009.50;;;30.31;35.31
17054;BME280;8643;48.824;11.422;2023-06-01T09:56:18;97003.56;;;30.07;33.34
17054;BME280;8643;48.824;11.422;2023-06-01T09:58:47;97008.50;;;30.88;34.38
17054;BME280;8643;48.824;11.422;2023-06-01T10:01:18;96999.94;;;31.10;29.69
17054;BME280;8643;48.824;11.422;2023-06-01T10:03:49;96998.31;;;30.91;30.41
17054;BME280;8643;48.824;11.422;2023-06-01T10:06:21;96998.69;;;31.11;28.62
17054;BME280;8643;48.824;11.422;2023-06-01T10:08:50;96991.28;;;30.23;33.52
17054;BME280;8643;48.824;11.422;2023-06-01T10:11:19;96986.72;;;29.59;30.99
17054;BME280;8643;48.824;11.422;2023-06-01T10:13:48;96992.25;;;30.61;28.59
17054;BME280;8643;48.824;11.422;2023-06-01T10:16:18;96991.38;;;30.82;33.04
17054;BME280;8643;48.824;11.422;2023-06-01T10:18:47;96986.28;;;29.61;29.63
17054;BME280;8643;48.824;11.422;2023-06-01T10:21:18;96989.50;;;29.50;30.63
17054;BME280;8643;48.824;11.422;2023-06-01T10:23:47;96989.88;;;31.09;28.68
17054;BME280;8643;48.824;11.422;2023-06-01T10:26:17;96981.94;;;29.69;32.64
17054;BME280;8643;48.824;11.422;2023-06-01T10:28:48;96979.50;;;30.97;32.58
17054;BME280;8643;48.824;11.422;2023-06-01T10:31:36;96977.66;;;31.49;30.99
17054;BME280;8643;48.824;11.422;2023-06-01T10:34:06;96971.66;;;29.75;30.68
17054;BME280;8643;48.824;11.422;2023-06-01T10:37:15;96975.56;;;28.73;32.57
17054;BME280;8643;48.824;11.422;2023-06-01T10:39:44;96974.00;;;28.46;32.49
17054;BME280;8643;48.824;11.422;2023-06-01T10:42:39;96968.47;;;30.17;32.79
17054;BME280;8643;48.824;11.422;2023-06-01T10:45:36;96967.19;;;29.65;31.97
17054;BME280;8643;48.824;11.422;2023-06-01T10:48:08;96963.88;;;29.79;29.28
17054;BME280;8643;48.824;11.422;2023-06-01T10:50:38;96960.84;;;30.59;28.33
17054;BME280;8643;48.824;11.422;2023-06-01T10:53:26;96955.50;;;30.51;30.93
17054;BME280;8643;48.824;11.422;2023-06-01T10:56:21;96958.81;;;29.74;31.50
17054;BME280;8643;48.824;11.422;2023-06-01T10:59:11;96959.56;;;30.19;31.13
17054;BME280;8643;48.824;11.422;2023-06-01T11:01:46;96958.34;;;29.76;33.72
17054;BME280;8643;48.824;11.422;2023-06-01T11:04:35;96955.59;;;30.07;30.31
17054;BME280;8643;48.824;11.422;2023-06-01T11:07:38;96954.81;;;30.38;34.35
17054;BME280;8643;48.824;11.422;2023-06-01T11:10:07;96954.72;;;30.60;32.16
17054;BME280;8643;48.824;11.422;2023-06-01T11:13:12;96957.47;;;30.92;28.72
17054;BME280;8643;48.824;11.422;2023-06-01T11:16:27;96945.72;;;30.12;33.16
17054;BME280;8643;48.824;11.422;2023-06-01T11:18:57;96943.38;;;30.10;31.33
17054;BME280;8643;48.824;11.422;2023-06-01T11:21:31;96949.66;;;31.14;29.20
17054;BME280;8643;48.824;11.422;2023-06-01T11:24:05;96945.59;;;31.43;30.90
17054;BME280;8643;48.824;11.422;2023-06-01T11:26:40;96936.41;;;32.13;30.75
17054;BME280;8643;48.824;11.422;2023-06-01T11:29:12;96939.28;;;31.94;27.11
17054;BME280;8643;48.824;11.422;2023-06-01T11:31:44;96935.22;;;31.86;28.17
17054;BME280;8643;48.824;11.422;2023-06-01T11:34:15;96927.38;;;31.72;28.28
17054;BME280;8643;48.824;11.422;2023-06-01T11:36:48;96928.16;;;32.33;29.34
17054;BME280;8643;48.824;11.422;2023-06-01T11:39:22;96937.28;;;31.76;27.08
17054;BME280;8643;48.824;11.422;2023-06-01T11:42:03;96930.53;;;31.28;28.22
17054;BME280;8643;48.824;11.422;2023-06-01T11:44:34;96918.69;;;30.33;28.40
17054;BME280;8643;48.824;11.422;2023-06-01T11:47:05;96917.13;;;30.82;32.31
17054;BME280;8643;48.824;11.422;2023-06-01T11:49:41;96913.84;;;29.58;29.82
17054;BME280;8643;48.824;11.422;2023-06-01T11:52:13;96901.84;;;28.87;31.28
17054;BME280;8643;48.824;11.422;2023-06-01T11:54:42;96909.47;;;27.58;30.04
17054;BME280;8643;48.824;11.422;2023-06-01T11:57:11;96900.31;;;27.96;30.35
17054;BME280;8643;48.824;11.422;2023-06-01T11:59:42;96904.16;;;28.41;30.37
17054;BME280;8643;48.824;11.422;2023-06-01T12:02:20;96898.16;;;29.13;30.97
17054;BME280;8643;48.824;11.422;2023-06-01T12:04:57;96901.63;;;30.05;31.83
17054;BME280;8643;48.824;11.422;2023-06-01T12:07:27;96901.28;;;31.31;30.17
17054;BME280;8643;48.824;11.422;2023-06-01T12:09:57;96903.03;;;32.17;27.40
17054;BME280;8643;48.824;11.422;2023-06-01T12:12:28;96900.31;;;32.56;27.06
17054;BME280;8643;48.824;11.422;2023-06-01T12:14:57;96898.25;;;32.90;25.78
17054;BME280;8643;48.824;11.422;2023-06-01T12:17:46;96891.72;;;32.17;25.85
17054;BME280;8643;48.824;11.422;2023-06-01T12:20:29;96891.69;;;32.84;25.52
17054;BME280;8643;48.824;11.422;2023-06-01T12:23:00;96887.63;;;31.11;27.24
17054;BME280;8643;48.824;11.422;2023-06-01T12:25:31;96896.59;;;31.28;29.39
17054;BME280;8643;48.824;11.422;2023-06-01T12:28:04;96887.91;;;31.40;28.01
17054;BME280;8643;48.824;11.422;2023-06-01T12:30:34;96882.66;;;30.56;28.19
17054;BME280;8643;48.824;11.422;2023-06-01T12:33:02;96884.09;;;30.10;34.28
17054;BME280;8643;48.824;11.422;2023-06-01T12:35:47;96877.38;;;30.95;33.04
17054;BME280;8643;48.824;11.422;2023-06-01T12:38:17;96870.78;;;31.72;28.08
17054;BME280;8643;48.824;11.422;2023-06-01T12:40:45;96871.16;;;31.98;26.99
17054;BME280;8643;48.824;11.422;2023-06-01T12:43:18;96873.16;;;32.07;29.01
17054;BME280;8643;48.824;11.422;2023-06-01T12:45:47;96875.78;;;30.16;29.11
17054;BME280;8643;48.824;11.422;2023-06-01T12:48:31;96870.50;;;29.42;29.44
17054;BME280;8643;48.824;11.422;2023-06-01T12:51:00;96863.53;;;29.78;32.02
17054;BME280;8643;48.824;11.422;2023-06-01T12:53:31;96860.28;;;30.21;29.18
17054;BME280;8643;48.824;11.422;2023-06-01T12:56:00;96858.81;;;30.57;29.42
17054;BME280;8643;48.824;11.422;2023-06-01T12:58:28;96865.94;;;31.07;27.24
17054;BME280;8643;48.824;11.422;2023-06-01T13:00:57;96856.00;;;28.01;30.01
17054;BME280;8643;48.824;11.422;2023-06-01T13:03:25;96850.09;;;28.46;29.85
17054;BME280;8643;48.824;11.422;2023-06-01T13:05:55;96846.25;;;28.53;29.02
17054;BME280;8643;48.824;11.422;2023-06-01T13:08:24;96847.44;;;28.78;28.73
17054;BME280;8643;48.824;11.422;2023-06-01T13:10:54;96853.97;;;28.75;28.75
17054;BME280;8643;48.824;11.422;2023-06-01T13:13:22;96841.06;;;28.64;28.25
17054;BME280;8643;48.824;11.422;2023-06-01T13:15:51;96833.69;;;29.02;28.14
17054;BME280;8643;48.824;11.422;2023-06-01T13:18:19;96838.09;;;30.01;27.91
17054;BME280;8643;48.824;11.422;2023-06-01T13:20:48;96838.56;;;29.99;29.55
17054;BME280;8643;48.824;11.422;2023-06-01T13:23:18;96831.53;;;30.13;28.27
17054;BME280;8643;48.824;11.422;2023-06-01T13:25:46;96829.81;;;30.15;28.34